WetterOnline ( http://www.wetteronline.de )

Wetter aktuell Harz (in 600m)

Aktuelles Wetter: Braunlage (609m)

6-stündlich | Neueste Meldungen
Ortszeit Temperatur Wetter
Mi, 18.07. 14:00 20.8° C fast wolkenlos
Mi, 18.07. 8:00 15.8° C fast wolkenlos
Mi, 18.07. 2:00 17.9° C fast wolkenlos
Di, 17.07. 20:00 24.0° C fast wolkenlos
Di, 17.07. 14:00 25.3° C wolkenlos
Di, 17.07. 8:00 18.7° C leicht bewölkt
Di, 17.07. 2:00 14.6° C wolkenlos
Mo, 16.07. 20:00 22.8° C leicht bewölkt
Ortszeit Temperatur Wetter
Mi, 18.07. 18:00 20.5° C wolkenlos
Mi, 18.07. 17:50 20.5° C wolkenlos
Mi, 18.07. 17:40 20.1° C wolkenlos
Mi, 18.07. 17:30 21.0° C fast wolkenlos
Mi, 18.07. 17:20 21.0° C fast wolkenlos
Mi, 18.07. 17:10 20.8° C fast wolkenlos
Mi, 18.07. 17:00 20.7° C wolkenlos
Mi, 18.07. 16:30 21.0° C leicht bewölkt
Mi, 18.07. 16:00 20.6° C fast wolkenlos
Mi, 18.07. 15:30 20.9° C wolkenlos
Mi, 18.07. 15:00 19.9° C fast wolkenlos
Ortszeit Relative Feuchte Sichtweite
Mi, 18.07. 14:00 43% 18 km
Mi, 18.07. 8:00 72% 12 km
Mi, 18.07. 2:00 62% 19 km
Di, 17.07. 20:00 34% 17 km
Di, 17.07. 14:00 27% 16 km
Di, 17.07. 8:00 56% 19 km
Di, 17.07. 2:00 65% 35 km
Mo, 16.07. 20:00 38% 35 km
Ortszeit Relative Feuchte Sichtweite
Mi, 18.07. 18:00 43% 19 km
Mi, 18.07. 17:50 43% -
Mi, 18.07. 17:40 44% -
Mi, 18.07. 17:30 41% 21 km
Mi, 18.07. 17:20 41% -
Mi, 18.07. 17:10 42% -
Mi, 18.07. 17:00 43% 23 km
Mi, 18.07. 16:30 42% 14 km
Mi, 18.07. 16:00 43% 19 km
Mi, 18.07. 15:30 41% 18 km
Mi, 18.07. 15:00 44% 12 km
Ortszeit Niederschlagsmenge Niederschlagsart
Mi, 18.07. 14:00 0.0 l/m2 in 6 Std. -
Mi, 18.07. 8:00 0.1 l/m2 in 12 Std. -
Mi, 18.07. 2:00 0.1 l/m2 in 6 Std. Regen
Di, 17.07. 20:00 0.0 l/m2 in 12 Std. -
Di, 17.07. 14:00 0.0 l/m2 in 6 Std. -
Di, 17.07. 8:00 0.0 l/m2 in 12 Std. -
Di, 17.07. 2:00 0.0 l/m2 in 6 Std. -
Mo, 16.07. 20:00 0.0 l/m2 in 12 Std. -
Ortszeit Niederschlagsmenge Niederschlagsart
Mi, 18.07. 18:00 0.0 l/m2 in 1 Std. -
Mi, 18.07. 17:50 keine Meldung -
Mi, 18.07. 17:40 keine Meldung -
Mi, 18.07. 17:30 0.0 l/m2 in 1 Std. -
Mi, 18.07. 17:20 keine Meldung -
Mi, 18.07. 17:10 keine Meldung -
Mi, 18.07. 17:00 0.0 l/m2 in 1 Std. -
Mi, 18.07. 16:30 0.0 l/m2 in 1 Std. -
Mi, 18.07. 16:00 0.0 l/m2 in 1 Std. -
Mi, 18.07. 15:30 0.0 l/m2 in 1 Std. -
Mi, 18.07. 15:00 0.0 l/m2 in 1 Std. -
Ortszeit Stärke Spitze Richtung
km/h Bft. km/h Grad Sektor
Mi, 18.07. 14:00 20 4 41 330° NW
Mi, 18.07. 8:00 9 2 39 280° W
Mi, 18.07. 2:00 14 3 32 350° N
Di, 17.07. 20:00 13 3 37 320° NW
Di, 17.07. 14:00 17 3 33 330° NW
Di, 17.07. 8:00 0 0 7 - -
Di, 17.07. 2:00 4 1 22 330° NW
Mo, 16.07. 20:00 11 2 28 70° O
Ortszeit Stärke Spitze Richtung
km/h Bft. km/h Grad Sektor
Mi, 18.07. 18:00 14 3 36 310° NW
Mi, 18.07. 17:50 14 3 - 310° NW
Mi, 18.07. 17:40 19 3 - 320° NW
Mi, 18.07. 17:30 13 3 30 320° NW
Mi, 18.07. 17:20 13 3 - 320° NW
Mi, 18.07. 17:10 14 3 - 320° NW
Mi, 18.07. 17:00 18 3 40 330° NW
Mi, 18.07. 16:30 18 3 40 350° N
Mi, 18.07. 16:00 15 3 35 320° NW
Mi, 18.07. 15:30 19 3 35 330° NW
Mi, 18.07. 15:00 18 3 40 320° NW
Ortszeit Untergrenze Bedeckung Gattung
total tief tief mittel hoch
Mi, 18.07. 14:00 10500 m 2/8 0/8 - - -
Mi, 18.07. 8:00 1500 m 1/8 1/8 - - -
Mi, 18.07. 2:00 3600 m 1/8 1/8 - - -
Di, 17.07. 20:00 12000 m 1/8 0/8 - - -
Di, 17.07. 14:00 2100 m 0/8 0/8 - - -
Di, 17.07. 8:00 1500 m 4/8 4/8 - - -
Di, 17.07. 2:00 - 0/8 0/8 - - -
Mo, 16.07. 20:00 1800 m 4/8 1/8 - - -
Ortszeit Bedeckungsgrad in Achtel und Wolkenuntergrenze
Mi, 18.07. 18:00 keine Wolken
Mi, 18.07. 17:50 keine Wolken
Mi, 18.07. 17:40 keine Wolken
Mi, 18.07. 17:30 1(9000m)
Mi, 18.07. 17:20 1(9000m)
Mi, 18.07. 17:10 1(9000m)
Mi, 18.07. 17:00 1(9000m)
Mi, 18.07. 16:30 3(9000m)
Mi, 18.07. 16:00 1(10500m)
Mi, 18.07. 15:30 keine Wolken
Mi, 18.07. 15:00 2(10500m)
Ortszeit Luftdruck NN (hPa) Tendenz (hPa in 3 Std.)
Mi, 18.07. 14:00 1016 + 0,2
Mi, 18.07. 8:00 1017 + 1,1
Mi, 18.07. 2:00 1015 + 0,6
Di, 17.07. 20:00 1012 0,0
Di, 17.07. 14:00 1012 0,0
Di, 17.07. 8:00 1013 + 0,4
Di, 17.07. 2:00 1014 + 0,3
Mo, 16.07. 20:00 1011 - 0,4
Ortszeit Luftdruck NN (hPa) Tendenz (hPa in 3 Std.)
Mi, 18.07. 18:00 1016 0,0
Mi, 18.07. 17:50 1016 keine Meldung
Mi, 18.07. 17:40 1016 keine Meldung
Mi, 18.07. 17:30 1016 + 0,1
Mi, 18.07. 17:20 1016 keine Meldung
Mi, 18.07. 17:10 1016 keine Meldung
Mi, 18.07. 17:00 1016 + 0,2
Mi, 18.07. 16:30 1016 + 0,2
Mi, 18.07. 16:00 1016 + 0,2
Mi, 18.07. 15:30 1016 + 0,2
Mi, 18.07. 15:00 1016 + 0,1
Ortszeit Schneehöhe (cm)
Mi, 18.07. 14:00 -
Mi, 18.07. 8:00 -
Mi, 18.07. 2:00 -
Di, 17.07. 20:00 -
Di, 17.07. 14:00 -
Di, 17.07. 8:00 -
Di, 17.07. 2:00 -
Mo, 16.07. 20:00 -
Ortszeit Schneehöhe (cm)
Mi, 18.07. 18:00 -
Mi, 18.07. 17:50 -
Mi, 18.07. 17:40 -
Mi, 18.07. 17:30 -
Mi, 18.07. 17:20 -
Mi, 18.07. 17:10 -
Mi, 18.07. 17:00 -
Mi, 18.07. 16:30 -
Mi, 18.07. 16:00 -
Mi, 18.07. 15:30 -
Mi, 18.07. 15:00 -
Link zu dieser Seite / Seite empfehlen

Das Wetter in ...